createdAt,value
2017-06-03T00:01:58.156Z,6.45
2017-06-03T00:04:25.674Z,6.68
2017-06-03T00:06:53.189Z,6.72
2017-06-03T00:09:20.731Z,6.25
2017-06-03T00:11:49.022Z,6.62
2017-06-03T00:14:17.322Z,6.22
2017-06-03T00:16:44.843Z,6.93
2017-06-03T00:19:12.362Z,6.75
2017-06-03T00:21:39.893Z,6.60
2017-06-03T00:24:07.418Z,7.55
2017-06-03T00:26:34.939Z,6.97
2017-06-03T00:29:02.481Z,5.80
2017-06-03T00:31:30.004Z,7.10
2017-06-03T00:33:57.525Z,7.12
2017-06-03T00:36:25.071Z,5.85
2017-06-03T00:38:52.594Z,6.22
2017-06-03T00:41:20.873Z,6.40
2017-06-03T00:43:49.182Z,5.82
2017-06-03T00:46:16.702Z,6.20
2017-06-03T00:48:44.250Z,6.65
2017-06-03T00:51:11.767Z,6.45
2017-06-03T00:53:39.316Z,6.15
2017-06-03T00:56:06.861Z,6.28
2017-06-03T00:58:35.150Z,5.75
2017-06-03T01:01:02.698Z,5.90
2017-06-03T01:03:30.977Z,6.32
2017-06-03T01:05:59.270Z,6.75
2017-06-03T01:08:26.805Z,6.75
2017-06-03T01:10:55.095Z,6.32
2017-06-03T01:13:23.401Z,6.18
2017-06-03T01:15:50.916Z,6.00
2017-06-03T01:18:18.429Z,6.80
2017-06-03T01:20:45.959Z,6.95
2017-06-03T01:23:13.472Z,6.93
2017-06-03T01:25:41.022Z,6.47
2017-06-03T01:28:08.541Z,6.35
2017-06-03T01:30:36.070Z,6.57
2017-06-03T01:33:03.609Z,7.35
2017-06-03T01:35:31.129Z,6.25
2017-06-03T01:37:58.670Z,6.25
2017-06-03T01:40:26.952Z,6.45
2017-06-03T01:42:55.240Z,6.95
2017-06-03T01:45:22.782Z,6.12
2017-06-03T01:47:51.062Z,6.10
2017-06-03T01:50:19.369Z,7.30
2017-06-03T01:52:46.886Z,7.20
2017-06-03T01:55:14.404Z,7.78
2017-06-03T01:57:41.943Z,6.80
2017-06-03T02:00:09.473Z,7.50
2017-06-03T02:02:37.782Z,7.65
2017-06-03T02:05:05.858Z,8.18
2017-06-03T02:07:33.533Z,6.95
2017-06-03T02:10:01.074Z,7.80
2017-06-03T02:12:28.603Z,7.75
2017-06-03T02:14:56.149Z,7.53
2017-06-03T02:17:23.672Z,8.15
2017-06-03T02:19:51.190Z,7.95
2017-06-03T02:22:19.493Z,9.38
2017-06-03T02:24:47.008Z,8.10
2017-06-03T02:27:14.563Z,8.25
2017-06-03T02:29:42.077Z,7.85
2017-06-03T02:32:09.597Z,8.35
2017-06-03T02:34:37.129Z,7.25
2017-06-03T02:37:04.641Z,8.40
2017-06-03T02:39:32.959Z,8.05
2017-06-03T02:42:00.470Z,7.97
2017-06-03T02:44:28.754Z,8.57
2017-06-03T02:46:57.057Z,8.23
2017-06-03T02:49:24.578Z,8.63
2017-06-03T02:51:52.353Z,9.40
2017-06-03T02:54:20.642Z,9.40
2017-06-03T02:56:48.165Z,9.23
2017-06-03T02:59:15.704Z,9.30
2017-06-03T03:01:43.226Z,9.50
2017-06-03T03:06:47.860Z,12.10
2017-06-03T03:09:16.203Z,10.25
2017-06-03T03:11:43.732Z,9.68
2017-06-03T03:14:11.258Z,9.52
2017-06-03T03:16:38.802Z,10.20
2017-06-03T03:19:06.321Z,9.82
2017-06-03T03:21:33.874Z,10.90
2017-06-03T03:24:01.406Z,11.30
2017-06-03T03:26:29.699Z,11.80
2017-06-03T03:28:57.242Z,10.32
2017-06-03T03:31:25.535Z,11.82
2017-06-03T03:33:53.086Z,11.07
2017-06-03T03:36:20.615Z,11.07
2017-06-03T03:38:48.134Z,11.02
2017-06-03T03:41:15.681Z,11.88
2017-06-03T03:43:43.207Z,12.35
2017-06-03T03:46:11.557Z,11.90
2017-06-03T03:48:39.092Z,11.70
2017-06-03T03:51:06.618Z,11.35
2017-06-03T03:53:34.926Z,12.27
2017-06-03T03:56:02.453Z,11.73
2017-06-03T03:58:30.767Z,11.35
2017-06-03T04:00:58.295Z,11.98
2017-06-03T04:03:26.589Z,12.95
2017-06-03T04:05:54.147Z,11.15
2017-06-03T04:08:21.666Z,11.70
2017-06-03T04:10:49.229Z,11.70
2017-06-03T04:13:16.753Z,12.13
2017-06-03T04:15:44.280Z,11.93
2017-06-03T04:18:11.817Z,11.90
2017-06-03T04:20:39.333Z,12.40
2017-06-03T04:23:06.884Z,10.55
2017-06-03T04:25:34.406Z,11.68
2017-06-03T04:28:02.699Z,11.00
2017-06-03T04:30:30.242Z,10.85
2017-06-03T04:32:58.544Z,11.00
2017-06-03T04:35:26.110Z,10.98
2017-06-03T04:37:53.643Z,11.35
2017-06-03T04:40:21.944Z,12.00
2017-06-03T04:42:49.493Z,10.93
2017-06-03T04:45:17.025Z,11.20
2017-06-03T04:47:44.593Z,12.00
2017-06-03T04:50:12.889Z,11.07
2017-06-03T04:52:41.185Z,10.70
2017-06-03T04:55:08.730Z,12.10
2017-06-03T04:57:37.014Z,11.63
2017-06-03T05:00:04.570Z,12.40
2017-06-03T05:02:32.858Z,11.50
2017-06-03T05:05:00.386Z,10.90
2017-06-03T05:07:27.937Z,11.70
2017-06-03T05:09:55.465Z,11.10
2017-06-03T05:12:23.021Z,11.50
2017-06-03T05:14:50.545Z,11.70
2017-06-03T05:17:18.834Z,11.30
2017-06-03T05:19:46.382Z,13.13
2017-06-03T05:22:14.682Z,12.07
2017-06-03T05:24:42.242Z,12.20
2017-06-03T05:27:09.773Z,13.43
2017-06-03T05:29:38.070Z,12.47
2017-06-03T05:32:05.611Z,12.70
2017-06-03T05:34:33.905Z,14.07
2017-06-03T05:37:01.458Z,14.73
2017-06-03T05:39:29.749Z,13.70
2017-06-03T05:41:57.279Z,13.77
2017-06-03T05:44:24.826Z,15.63
2017-06-03T05:46:52.353Z,14.60
2017-06-03T05:49:19.922Z,12.93
2017-06-03T05:51:47.477Z,14.87
2017-06-03T05:54:15.001Z,14.50
2017-06-03T05:56:43.317Z,13.00
2017-06-03T05:59:10.838Z,13.37
2017-06-03T06:01:39.161Z,13.90
2017-06-03T06:04:06.681Z,13.20
2017-06-03T06:06:34.974Z,13.77
2017-06-03T06:09:02.510Z,14.10
2017-06-03T06:11:30.807Z,16.20
2017-06-03T06:13:58.363Z,15.80
2017-06-03T06:16:25.890Z,15.27
2017-06-03T06:18:53.423Z,15.90
2017-06-03T06:21:20.974Z,15.87
2017-06-03T06:23:48.579Z,14.10
2017-06-03T06:26:16.129Z,15.40
2017-06-03T06:28:43.658Z,16.43
2017-06-03T06:31:11.185Z,17.00
2017-06-03T06:33:39.493Z,14.30
2017-06-03T06:38:44.232Z,14.93
2017-06-03T06:41:11.749Z,15.43
2017-06-03T06:43:39.282Z,17.20
2017-06-03T06:46:06.822Z,14.87
2017-06-03T06:48:34.342Z,16.50
2017-06-03T06:51:02.667Z,16.20
2017-06-03T06:53:30.193Z,17.20
2017-06-03T06:55:58.477Z,16.70
2017-06-03T06:58:26.018Z,15.17
2017-06-03T07:00:54.310Z,15.47
2017-06-03T07:03:22.618Z,15.10
2017-06-03T07:05:50.142Z,14.37
2017-06-03T07:08:22.146Z,14.53
2017-06-03T07:10:49.679Z,15.73
2017-06-03T07:13:17.207Z,14.40
2017-06-03T07:15:44.762Z,16.43
2017-06-03T07:18:12.298Z,16.00
2017-06-03T07:20:39.856Z,14.97
2017-06-03T07:23:07.509Z,15.60
2017-06-03T07:25:35.047Z,17.10
2017-06-03T07:28:02.602Z,15.77
2017-06-03T07:30:30.891Z,16.20
2017-06-03T07:32:59.345Z,16.00
2017-06-03T07:35:27.637Z,17.50
2017-06-03T07:37:55.927Z,15.90
2017-06-03T07:40:23.486Z,15.53
2017-06-03T07:42:51.049Z,14.50
2017-06-03T07:45:18.599Z,16.07
2017-06-03T07:47:46.130Z,16.40
2017-06-03T07:50:13.665Z,16.27
2017-06-03T07:52:41.240Z,15.77
2017-06-03T07:55:08.954Z,13.90
2017-06-03T07:57:36.506Z,13.13
2017-06-03T08:00:04.809Z,15.20
2017-06-03T08:02:32.333Z,13.00
2017-06-03T08:05:00.654Z,12.20
2017-06-03T08:07:28.178Z,12.33
2017-06-03T08:09:56.489Z,12.73
2017-06-03T08:12:24.021Z,12.63
2017-06-03T08:14:53.331Z,11.47
2017-06-03T08:17:20.878Z,11.77
2017-06-03T08:19:50.570Z,13.10
2017-06-03T08:22:18.118Z,13.77
2017-06-03T08:24:45.661Z,14.40
2017-06-03T08:27:13.189Z,12.80
2017-06-03T08:29:40.738Z,11.53
2017-06-03T08:32:09.028Z,11.47
2017-06-03T08:34:36.606Z,13.70
2017-06-03T08:37:04.126Z,12.33
2017-06-03T08:39:32.421Z,11.57
2017-06-03T08:41:59.963Z,10.40
2017-06-03T08:44:28.263Z,11.10
2017-06-03T08:46:55.818Z,10.23
2017-06-03T08:49:24.106Z,9.60
2017-06-03T08:51:51.753Z,10.80
2017-06-03T08:54:20.057Z,9.50
2017-06-03T08:56:47.576Z,9.27
2017-06-03T08:59:15.119Z,9.30
2017-06-03T09:01:42.642Z,9.73
2017-06-03T09:04:10.170Z,8.43
2017-06-03T09:06:38.481Z,10.40
2017-06-03T09:09:06.078Z,9.23
2017-06-03T09:11:33.642Z,10.17
2017-06-03T09:14:01.180Z,10.50
2017-06-03T09:16:28.694Z,9.07
2017-06-03T09:18:57.005Z,9.17
2017-06-03T09:21:24.530Z,10.43
2017-06-03T09:23:52.845Z,11.60
2017-06-03T09:26:20.371Z,10.23
2017-06-03T09:28:48.686Z,9.43
2017-06-03T09:31:16.246Z,9.23
2017-06-03T09:33:43.769Z,9.83
2017-06-03T09:36:12.087Z,10.20
2017-06-03T09:38:39.619Z,9.30
2017-06-03T09:41:08.024Z,8.37
2017-06-03T09:43:35.538Z,8.17
2017-06-03T09:46:03.054Z,8.47
2017-06-03T09:48:30.602Z,10.50
2017-06-03T09:50:58.125Z,9.40
2017-06-03T09:53:26.425Z,9.40
2017-06-03T09:55:53.956Z,9.60
2017-06-03T09:58:21.477Z,10.03
2017-06-03T10:00:49.010Z,7.70
2017-06-03T10:03:16.536Z,8.47
2017-06-03T10:05:44.069Z,8.13
2017-06-03T10:08:11.587Z,8.53
2017-06-03T10:10:39.109Z,9.70
2017-06-03T10:13:06.646Z,8.37
2017-06-03T10:15:34.163Z,7.60
2017-06-03T10:18:01.706Z,7.43
2017-06-03T10:20:29.986Z,9.03
2017-06-03T10:22:58.270Z,7.73
2017-06-03T10:25:26.578Z,6.67
2017-06-03T10:27:54.104Z,7.17
2017-06-03T10:30:22.438Z,6.60
2017-06-03T10:32:49.961Z,6.50
2017-06-03T10:35:17.479Z,5.80
2017-06-03T10:37:45.014Z,6.43
2017-06-03T10:40:12.569Z,6.37
2017-06-03T10:42:40.121Z,6.90
2017-06-03T10:45:08.404Z,6.50
2017-06-03T10:47:35.928Z,6.00
2017-06-03T10:50:04.237Z,5.90
2017-06-03T10:52:31.746Z,6.33
2017-06-03T10:54:59.286Z,5.67
2017-06-03T10:57:26.806Z,5.50
2017-06-03T10:59:54.367Z,5.77
2017-06-03T11:02:21.898Z,5.47
2017-06-03T11:04:50.185Z,5.93
2017-06-03T11:07:18.497Z,6.57
2017-06-03T11:09:46.017Z,6.57
2017-06-03T11:12:14.305Z,6.80
2017-06-03T11:14:42.609Z,6.10
2017-06-03T11:17:10.134Z,5.80
2017-06-03T11:19:38.442Z,6.10
2017-06-03T11:22:05.969Z,6.00
2017-06-03T11:24:33.490Z,6.00
2017-06-03T11:27:01.041Z,5.57
2017-06-03T11:29:28.572Z,5.80
2017-06-03T11:31:56.126Z,6.00
2017-06-03T11:34:24.416Z,5.40
2017-06-03T11:36:51.967Z,6.00
2017-06-03T11:39:19.503Z,5.33
2017-06-03T11:41:47.020Z,4.63
2017-06-03T11:44:14.571Z,5.33
2017-06-03T11:46:42.090Z,5.77
2017-06-03T11:49:10.374Z,5.50
2017-06-03T11:51:38.693Z,5.20
2017-06-03T11:54:06.225Z,5.63
2017-06-03T11:56:33.770Z,5.10
2017-06-03T11:59:02.049Z,5.23
2017-06-03T12:01:30.344Z,5.43
2017-06-03T12:03:57.878Z,5.70
2017-06-03T12:06:25.394Z,5.20
2017-06-03T12:08:52.933Z,5.50
2017-06-03T12:11:20.454Z,5.27
2017-06-03T12:13:47.973Z,5.90
2017-06-03T12:16:15.511Z,5.77
2017-06-03T12:18:43.038Z,5.23
2017-06-03T12:21:10.600Z,5.30
2017-06-03T12:23:38.124Z,5.40
2017-06-03T12:26:05.680Z,5.20
2017-06-03T12:28:33.214Z,5.57
2017-06-03T12:31:00.742Z,5.23
2017-06-03T12:33:28.286Z,5.33
2017-06-03T12:35:55.803Z,5.13
2017-06-03T12:38:23.329Z,5.17
2017-06-03T12:40:51.641Z,4.80
2017-06-03T12:43:19.214Z,5.80
2017-06-03T12:45:46.807Z,4.83
2017-06-03T12:48:14.344Z,4.43
2017-06-03T12:50:41.996Z,5.37
2017-06-03T12:53:09.566Z,4.60
2017-06-03T12:55:37.224Z,4.67
2017-06-03T12:58:04.821Z,5.00
2017-06-03T13:00:32.468Z,4.60
2017-06-03T13:03:00.112Z,5.13
2017-06-03T13:05:27.777Z,4.70
2017-06-03T13:07:55.463Z,4.80
2017-06-03T13:10:23.123Z,4.90
2017-06-03T13:12:50.868Z,4.57
2017-06-03T13:15:18.530Z,5.10
2017-06-03T13:17:46.126Z,4.60
2017-06-03T13:20:16.188Z,4.70
2017-06-03T13:22:43.819Z,4.90
2017-06-03T13:25:12.276Z,5.07
2017-06-03T13:27:39.902Z,5.30
2017-06-03T13:30:07.686Z,6.00
2017-06-03T13:32:35.287Z,4.90
2017-06-03T13:35:02.841Z,4.87
2017-06-03T13:37:30.362Z,4.73
2017-06-03T13:39:57.877Z,4.73
2017-06-03T13:42:25.412Z,4.80
2017-06-03T13:44:52.937Z,4.27
2017-06-03T13:47:20.487Z,4.60
2017-06-03T13:49:48.016Z,5.40
2017-06-03T13:52:15.630Z,5.10
2017-06-03T13:54:43.167Z,6.07
2017-06-03T13:57:11.463Z,4.80
2017-06-03T13:59:39.043Z,4.83
2017-06-03T14:02:06.565Z,5.00
2017-06-03T14:04:34.872Z,4.20
2017-06-03T14:07:02.390Z,4.83
2017-06-03T14:09:30.682Z,4.50
2017-06-03T14:11:58.983Z,4.40
2017-06-03T14:14:26.507Z,4.40
2017-06-03T14:16:54.814Z,4.60
2017-06-03T14:19:22.329Z,4.33
2017-06-03T14:21:49.847Z,4.03
2017-06-03T14:24:17.385Z,4.50
2017-06-03T14:26:44.914Z,4.33
2017-06-03T14:29:12.482Z,4.67
2017-06-03T14:31:40.003Z,4.80
2017-06-03T14:34:07.525Z,4.53
2017-06-03T14:36:35.058Z,4.17
2017-06-03T14:39:02.581Z,4.43
2017-06-03T14:41:30.146Z,4.30
2017-06-03T14:43:57.670Z,4.37
2017-06-03T14:46:25.190Z,4.40
2017-06-03T14:48:52.726Z,4.27
2017-06-03T14:51:20.244Z,4.10
2017-06-03T14:53:47.814Z,4.10
2017-06-03T14:56:15.410Z,4.03
2017-06-03T14:58:42.934Z,4.00
2017-06-03T15:01:10.498Z,4.00
2017-06-03T15:03:38.013Z,3.90
2017-06-03T15:06:05.564Z,3.77
2017-06-03T15:08:33.092Z,3.83
2017-06-03T15:11:00.611Z,4.50
2017-06-03T15:13:28.158Z,4.30
2017-06-03T15:15:55.675Z,4.67
2017-06-03T15:18:23.217Z,3.80
2017-06-03T15:23:27.855Z,3.40
2017-06-03T15:25:55.381Z,3.63
2017-06-03T15:28:22.906Z,4.23
2017-06-03T15:30:50.441Z,3.77
2017-06-03T15:33:17.964Z,3.77
2017-06-03T15:35:45.506Z,4.10
2017-06-03T15:38:13.019Z,3.97
2017-06-03T15:40:41.878Z,4.33
2017-06-03T15:43:09.500Z,3.73
2017-06-03T15:45:37.021Z,3.80
2017-06-03T15:48:05.321Z,4.20
2017-06-03T15:50:32.846Z,4.33
2017-06-03T15:53:00.380Z,3.87
2017-06-03T15:55:27.921Z,3.87
2017-06-03T15:57:55.435Z,4.03
2017-06-03T16:00:23.742Z,4.40
2017-06-03T16:02:51.267Z,3.83
2017-06-03T16:05:19.555Z,4.80
2017-06-03T16:07:47.099Z,3.37
2017-06-03T16:10:14.626Z,3.80
2017-06-03T16:12:42.189Z,3.53
2017-06-03T16:15:09.708Z,4.73
2017-06-03T16:17:37.997Z,4.67
2017-06-03T16:20:05.531Z,3.90
2017-06-03T16:22:33.175Z,3.90
2017-06-03T16:25:00.720Z,3.50
2017-06-03T16:27:28.238Z,4.37
2017-06-03T16:29:55.766Z,4.07
2017-06-03T16:32:23.299Z,4.07
2017-06-03T16:34:50.862Z,3.90
2017-06-03T16:37:18.402Z,4.27
2017-06-03T16:39:45.929Z,4.27
2017-06-03T16:42:14.222Z,3.47
2017-06-03T16:44:41.766Z,3.60
2017-06-03T16:47:10.055Z,3.97
2017-06-03T16:49:37.598Z,4.33
2017-06-03T16:52:05.890Z,3.93
2017-06-03T16:54:34.170Z,3.53
2017-06-03T16:57:02.482Z,4.17
2017-06-03T16:59:29.993Z,3.63
2017-06-03T17:01:58.565Z,3.90
2017-06-03T17:04:26.085Z,3.60
2017-06-03T17:06:53.595Z,3.93
2017-06-03T17:09:21.910Z,3.53
2017-06-03T17:11:49.430Z,3.87
2017-06-03T17:14:17.749Z,3.67
2017-06-03T17:16:45.261Z,3.53
2017-06-03T17:19:12.781Z,3.83
2017-06-03T17:21:40.316Z,4.23
2017-06-03T17:24:07.829Z,3.50
2017-06-03T17:26:35.410Z,3.70
2017-06-03T17:29:03.702Z,3.33
2017-06-03T17:31:31.985Z,3.30
2017-06-03T17:34:00.286Z,4.03
2017-06-03T17:36:27.803Z,4.50
2017-06-03T17:38:55.360Z,4.77
2017-06-03T17:41:22.874Z,4.10
2017-06-03T17:43:50.398Z,4.60
2017-06-03T17:46:18.707Z,4.00
2017-06-03T17:48:46.218Z,4.33
2017-06-03T17:51:13.766Z,4.30
2017-06-03T17:53:41.278Z,5.00
2017-06-03T17:56:08.790Z,4.43
2017-06-03T17:58:36.324Z,4.77
2017-06-03T18:01:03.846Z,5.03
2017-06-03T18:03:32.157Z,6.17
2017-06-03T18:05:59.674Z,5.03
2017-06-03T18:08:27.958Z,4.80
2017-06-03T18:10:56.259Z,4.13
2017-06-03T18:13:23.777Z,4.20
2017-06-03T18:15:51.323Z,4.00
2017-06-03T18:21:12.731Z,4.90
2017-06-03T18:23:45.850Z,5.57
2017-06-03T18:26:13.395Z,5.30
2017-06-03T18:28:40.918Z,5.30
2017-06-03T18:31:11.463Z,5.10
2017-06-03T18:33:39.008Z,4.53
2017-06-03T18:38:43.780Z,5.07
2017-06-03T18:41:11.303Z,4.67
2017-06-03T18:43:39.586Z,4.70
2017-06-03T18:46:08.233Z,5.00
2017-06-03T18:48:35.752Z,4.80
2017-06-03T18:51:03.302Z,5.60
2017-06-03T18:53:30.822Z,5.60
2017-06-03T18:55:58.355Z,6.73
2017-06-03T18:58:25.918Z,6.47
2017-06-03T19:00:53.447Z,5.83
2017-06-03T19:03:20.993Z,6.30
2017-06-03T19:05:49.283Z,7.30
2017-06-03T19:08:16.830Z,8.23
2017-06-03T19:10:45.132Z,6.70
2017-06-03T19:13:12.654Z,6.97
2017-06-03T19:15:40.205Z,5.80
2017-06-03T19:18:07.731Z,5.70
2017-06-03T19:20:35.254Z,6.23
2017-06-03T19:23:03.554Z,5.50
2017-06-03T19:25:31.070Z,5.73
2017-06-03T19:27:58.614Z,5.70
2017-06-03T19:30:26.138Z,5.80
2017-06-03T19:32:53.654Z,5.90
2017-06-03T19:35:21.187Z,5.43
2017-06-03T19:37:48.738Z,5.90
2017-06-03T19:40:16.304Z,5.50
2017-06-03T19:42:43.831Z,5.70
2017-06-03T19:45:11.363Z,5.83
2017-06-03T19:47:39.680Z,5.43
2017-06-03T19:50:07.202Z,5.93
2017-06-03T19:52:35.529Z,5.50
2017-06-03T19:55:03.089Z,5.63
2017-06-03T19:57:30.608Z,6.87
2017-06-03T19:59:58.919Z,5.90
2017-06-03T20:02:26.442Z,6.57
2017-06-03T20:04:54.764Z,6.17
2017-06-03T20:07:22.340Z,6.10
2017-06-03T20:09:49.864Z,6.07
2017-06-03T20:12:17.399Z,7.00
2017-06-03T20:14:44.918Z,7.20
2017-06-03T20:17:12.468Z,6.63
2017-06-03T20:19:39.998Z,5.87
2017-06-03T20:22:08.286Z,6.50
2017-06-03T20:24:35.830Z,6.37
2017-06-03T20:27:04.118Z,5.97
2017-06-03T20:29:32.434Z,6.30
2017-06-03T20:31:59.957Z,7.13
2017-06-03T20:34:28.246Z,6.57
2017-06-03T20:36:55.780Z,7.20
2017-06-03T20:39:24.061Z,6.70
2017-06-03T20:41:52.458Z,7.00
2017-06-03T20:44:20.002Z,7.30
2017-06-03T20:46:48.303Z,6.63
2017-06-03T20:49:15.839Z,7.47
2017-06-03T20:51:44.122Z,6.90
2017-06-03T20:54:12.530Z,7.63
2017-06-03T20:56:40.085Z,7.47
2017-06-03T20:59:07.603Z,7.53
2017-06-03T21:01:35.149Z,6.90
2017-06-03T21:04:02.674Z,7.03
2017-06-03T21:06:30.219Z,7.00
2017-06-03T21:08:59.291Z,7.27
2017-06-03T21:11:26.827Z,7.73
2017-06-03T21:13:54.358Z,7.17
2017-06-03T21:16:21.933Z,7.30
2017-06-03T21:18:49.511Z,7.37
2017-06-03T21:21:17.034Z,6.80
2017-06-03T21:23:44.562Z,7.77
2017-06-03T21:26:12.870Z,6.83
2017-06-03T21:28:40.394Z,7.13
2017-06-03T21:31:07.939Z,7.33
2017-06-03T21:33:35.453Z,7.20
2017-06-03T21:36:02.981Z,7.73
2017-06-03T21:38:31.294Z,8.00
2017-06-03T21:40:58.819Z,6.73
2017-06-03T21:43:27.150Z,7.87
2017-06-03T21:45:54.687Z,6.97
2017-06-03T21:48:22.370Z,7.00
2017-06-03T21:50:49.916Z,7.33
2017-06-03T21:53:17.504Z,7.80
2017-06-03T21:55:45.050Z,7.57
2017-06-03T21:58:12.578Z,8.13
2017-06-03T22:00:40.865Z,7.20
2017-06-03T22:03:09.167Z,7.53
2017-06-03T22:05:36.695Z,8.00
2017-06-03T22:08:05.007Z,7.40
2017-06-03T22:10:32.536Z,8.10
2017-06-03T22:13:00.062Z,7.70
2017-06-03T22:15:27.602Z,7.87
2017-06-03T22:17:55.134Z,7.30
2017-06-03T22:20:22.713Z,7.50
2017-06-03T22:22:50.229Z,7.30
2017-06-03T22:25:18.514Z,8.43
2017-06-03T22:27:46.827Z,7.63
2017-06-03T22:30:14.342Z,7.50
2017-06-03T22:32:42.651Z,7.93
2017-06-03T22:35:10.794Z,8.00
2017-06-03T22:37:39.122Z,7.60
2017-06-03T22:40:06.661Z,8.65
2017-06-03T22:42:34.226Z,7.93
2017-06-03T22:45:01.783Z,8.70
2017-06-03T22:47:29.310Z,7.63
2017-06-03T22:49:57.718Z,7.25
2017-06-03T22:52:25.278Z,7.82
2017-06-03T22:54:52.810Z,7.97
2017-06-03T22:57:21.126Z,7.62
2017-06-03T22:59:48.710Z,7.62
2017-06-03T23:02:16.233Z,7.57
2017-06-03T23:04:44.534Z,7.43
2017-06-03T23:07:12.067Z,7.93
2017-06-03T23:12:17.173Z,8.20
2017-06-03T23:14:44.743Z,7.45
2017-06-03T23:17:12.266Z,7.85
2017-06-03T23:19:40.770Z,7.70
2017-06-03T23:22:08.318Z,7.20
2017-06-03T23:24:35.878Z,8.30
2017-06-03T23:27:03.473Z,7.43
2017-06-03T23:29:30.998Z,7.35
2017-06-03T23:31:58.548Z,7.62
2017-06-03T23:34:26.104Z,7.90
2017-06-03T23:36:53.693Z,8.60
2017-06-03T23:39:21.253Z,8.03
2017-06-03T23:41:48.805Z,7.00
2017-06-03T23:44:16.349Z,7.70
2017-06-03T23:46:43.910Z,7.57
2017-06-03T23:49:11.435Z,8.10
2017-06-03T23:51:38.994Z,7.80
2017-06-03T23:54:06.517Z,7.10
2017-06-03T23:56:34.082Z,7.12
2017-06-03T23:59:01.622Z,7.50
